sensor_id;sensor_type;location;lat;lon;timestamp;pressure;altitude;pressure_sealevel;temperature;humidity
70690;BME280;58267;51.156;17.044;2023-02-19T00:02:09;100075.20;;;9.55;46.67
70690;BME280;58267;51.156;17.044;2023-02-19T00:04:39;100067.96;;;9.40;46.54
70690;BME280;58267;51.156;17.044;2023-02-19T00:07:00;100070.64;;;8.60;47.61
70690;BME280;58267;51.156;17.044;2023-02-19T00:09:25;100068.11;;;8.95;47.72
70690;BME280;58267;51.156;17.044;2023-02-19T00:11:51;100061.46;;;8.30;48.52
70690;BME280;58267;51.156;17.044;2023-02-19T00:14:18;100059.78;;;8.00;49.07
70690;BME280;58267;51.156;17.044;2023-02-19T00:16:42;100061.54;;;8.80;48.51
70690;BME280;58267;51.156;17.044;2023-02-19T00:19:11;100059.12;;;8.07;49.33
70690;BME280;58267;51.156;17.044;2023-02-19T00:21:32;100057.91;;;8.04;50.55
70690;BME280;58267;51.156;17.044;2023-02-19T00:24:00;100054.56;;;8.23;49.17
70690;BME280;58267;51.156;17.044;2023-02-19T00:26:23;100056.49;;;8.73;48.92
70690;BME280;58267;51.156;17.044;2023-02-19T00:28:49;100047.81;;;8.08;50.15
70690;BME280;58267;51.156;17.044;2023-02-19T00:31:16;100047.08;;;8.50;49.23
70690;BME280;58267;51.156;17.044;2023-02-19T00:33:38;100046.47;;;8.06;49.76
70690;BME280;58267;51.156;17.044;2023-02-19T00:36:05;100043.66;;;8.45;49.38
70690;BME280;58267;51.156;17.044;2023-02-19T00:38:30;100050.93;;;9.05;48.65
70690;BME280;58267;51.156;17.044;2023-02-19T00:40:55;100050.22;;;8.28;49.21
70690;BME280;58267;51.156;17.044;2023-02-19T00:43:21;100045.97;;;8.51;49.14
70690;BME280;58267;51.156;17.044;2023-02-19T00:45:46;100045.12;;;7.93;49.79
70690;BME280;58267;51.156;17.044;2023-02-19T00:48:11;100043.83;;;7.27;50.99
70690;BME280;58267;51.156;17.044;2023-02-19T00:50:36;100040.17;;;7.53;51.36
70690;BME280;58267;51.156;17.044;2023-02-19T00:53:01;100036.13;;;8.32;49.81
70690;BME280;58267;51.156;17.044;2023-02-19T00:55:26;100036.63;;;7.91;50.36
70690;BME280;58267;51.156;17.044;2023-02-19T00:57:52;100034.47;;;8.28;49.81
70690;BME280;58267;51.156;17.044;2023-02-19T01:00:17;100035.57;;;6.24;53.40
70690;BME280;58267;51.156;17.044;2023-02-19T01:02:42;100028.81;;;7.82;51.25
70690;BME280;58267;51.156;17.044;2023-02-19T01:05:08;100024.16;;;8.23;49.64
70690;BME280;58267;51.156;17.044;2023-02-19T01:07:35;100022.83;;;7.90;50.65
70690;BME280;58267;51.156;17.044;2023-02-19T01:09:58;100020.10;;;7.12;52.33
70690;BME280;58267;51.156;17.044;2023-02-19T01:12:24;100011.06;;;7.56;51.98
70690;BME280;58267;51.156;17.044;2023-02-19T01:14:49;100012.42;;;6.99;52.78
70690;BME280;58267;51.156;17.044;2023-02-19T01:17:15;100010.84;;;7.05;53.67
70690;BME280;58267;51.156;17.044;2023-02-19T01:19:40;100003.04;;;7.05;53.21
70690;BME280;58267;51.156;17.044;2023-02-19T01:22:05;100003.62;;;7.31;53.24
70690;BME280;58267;51.156;17.044;2023-02-19T01:24:30;100000.11;;;6.94;53.76
70690;BME280;58267;51.156;17.044;2023-02-19T01:26:55;100003.67;;;6.68;53.98
70690;BME280;58267;51.156;17.044;2023-02-19T01:29:21;100001.21;;;6.34;55.33
70690;BME280;58267;51.156;17.044;2023-02-19T01:31:46;99998.05;;;6.41;54.95
70690;BME280;58267;51.156;17.044;2023-02-19T01:34:11;99999.28;;;6.54;54.96
70690;BME280;58267;51.156;17.044;2023-02-19T01:36:36;99989.44;;;6.80;54.33
70690;BME280;58267;51.156;17.044;2023-02-19T01:39:04;99991.39;;;6.09;54.86
70690;BME280;58267;51.156;17.044;2023-02-19T01:41:27;99998.19;;;6.11;55.29
70690;BME280;58267;51.156;17.044;2023-02-19T01:43:57;99996.94;;;6.63;54.09
70690;BME280;58267;51.156;17.044;2023-02-19T01:46:18;99993.63;;;7.36;52.80
70690;BME280;58267;51.156;17.044;2023-02-19T01:48:43;99992.99;;;6.67;53.19
70690;BME280;58267;51.156;17.044;2023-02-19T01:51:11;99991.29;;;6.62;54.17
70690;BME280;58267;51.156;17.044;2023-02-19T01:53:37;99981.22;;;6.94;53.53
70690;BME280;58267;51.156;17.044;2023-02-19T01:55:59;99977.22;;;6.86;53.51
70690;BME280;58267;51.156;17.044;2023-02-19T01:58:27;99971.68;;;6.63;54.69
70690;BME280;58267;51.156;17.044;2023-02-19T02:00:49;99969.23;;;6.58;54.55
70690;BME280;58267;51.156;17.044;2023-02-19T02:03:14;99963.19;;;7.20;52.62
70690;BME280;58267;51.156;17.044;2023-02-19T02:05:46;99951.74;;;7.28;52.88
70690;BME280;58267;51.156;17.044;2023-02-19T02:08:05;99943.31;;;7.63;51.81
70690;BME280;58267;51.156;17.044;2023-02-19T02:10:30;99942.55;;;6.94;53.00
70690;BME280;58267;51.156;17.044;2023-02-19T02:12:58;99944.95;;;7.23;52.55
70690;BME280;58267;51.156;17.044;2023-02-19T02:15:20;99946.84;;;7.09;53.24
70690;BME280;58267;51.156;17.044;2023-02-19T02:17:52;99941.90;;;7.17;53.14
70690;BME280;58267;51.156;17.044;2023-02-19T02:20:25;99943.16;;;8.09;51.19
70690;BME280;58267;51.156;17.044;2023-02-19T02:22:39;99941.96;;;8.14;50.97
70690;BME280;58267;51.156;17.044;2023-02-19T02:25:15;99939.15;;;7.71;51.83
70690;BME280;58267;51.156;17.044;2023-02-19T02:27:37;99934.15;;;7.51;52.28
70690;BME280;58267;51.156;17.044;2023-02-19T02:30:04;99928.93;;;8.11;52.13
70690;BME280;58267;51.156;17.044;2023-02-19T02:32:19;99924.12;;;8.12;51.10
70690;BME280;58267;51.156;17.044;2023-02-19T02:34:48;99919.62;;;8.11;51.05
70690;BME280;58267;51.156;17.044;2023-02-19T02:37:09;99921.47;;;8.31;50.53
70690;BME280;58267;51.156;17.044;2023-02-19T02:39:33;99918.94;;;7.66;51.35
70690;BME280;58267;51.156;17.044;2023-02-19T02:41:59;99910.26;;;8.29;50.18
70690;BME280;58267;51.156;17.044;2023-02-19T02:44:33;99909.18;;;8.64;49.58
70690;BME280;58267;51.156;17.044;2023-02-19T02:46:50;99912.92;;;7.87;51.46
70690;BME280;58267;51.156;17.044;2023-02-19T02:49:19;99913.59;;;8.47;50.38
70690;BME280;58267;51.156;17.044;2023-02-19T02:51:44;99909.67;;;8.85;49.59
70690;BME280;58267;51.156;17.044;2023-02-19T02:54:08;99911.96;;;8.84;48.98
70690;BME280;58267;51.156;17.044;2023-02-19T02:56:32;99911.35;;;7.40;51.74
70690;BME280;58267;51.156;17.044;2023-02-19T02:58:58;99905.91;;;8.59;50.17
70690;BME280;58267;51.156;17.044;2023-02-19T03:01:24;99903.75;;;7.81;51.25
70690;BME280;58267;51.156;17.044;2023-02-19T03:03:50;99907.40;;;8.33;50.51
70690;BME280;58267;51.156;17.044;2023-02-19T03:06:15;99905.95;;;6.69;54.01
70690;BME280;58267;51.156;17.044;2023-02-19T03:08:41;99900.38;;;6.48;54.76
70690;BME280;58267;51.156;17.044;2023-02-19T03:11:05;99906.08;;;7.37;52.86
70690;BME280;58267;51.156;17.044;2023-02-19T03:13:32;99904.03;;;6.80;54.53
70690;BME280;58267;51.156;17.044;2023-02-19T03:15:56;99901.50;;;7.15;54.03
70690;BME280;58267;51.156;17.044;2023-02-19T03:18:18;99901.59;;;7.23;54.35
70690;BME280;58267;51.156;17.044;2023-02-19T03:20:46;99901.74;;;6.35;55.64
70690;BME280;58267;51.156;17.044;2023-02-19T03:23:10;99903.89;;;6.28;56.28
70690;BME280;58267;51.156;17.044;2023-02-19T03:25:36;99901.19;;;7.20;54.42
70690;BME280;58267;51.156;17.044;2023-02-19T03:28:01;99901.02;;;7.03;54.86
70690;BME280;58267;51.156;17.044;2023-02-19T03:30:28;99897.49;;;6.87;54.94
70690;BME280;58267;51.156;17.044;2023-02-19T03:32:53;99892.31;;;7.57;53.71
70690;BME280;58267;51.156;17.044;2023-02-19T03:35:18;99882.14;;;6.49;55.20
70690;BME280;58267;51.156;17.044;2023-02-19T03:37:43;99877.74;;;7.64;53.55
70690;BME280;58267;51.156;17.044;2023-02-19T03:40:07;99870.01;;;7.01;54.43
70690;BME280;58267;51.156;17.044;2023-02-19T03:42:36;99864.70;;;7.71;53.24
70690;BME280;58267;51.156;17.044;2023-02-19T03:45:08;99857.65;;;8.54;51.39
70690;BME280;58267;51.156;17.044;2023-02-19T03:47:24;99859.46;;;8.51;50.89
70690;BME280;58267;51.156;17.044;2023-02-19T03:49:50;99861.95;;;8.45;50.96
70690;BME280;58267;51.156;17.044;2023-02-19T03:52:17;99861.90;;;8.22;51.36
70690;BME280;58267;51.156;17.044;2023-02-19T03:54:44;99866.41;;;8.22;51.37
70690;BME280;58267;51.156;17.044;2023-02-19T03:57:06;99868.96;;;7.80;52.11
70690;BME280;58267;51.156;17.044;2023-02-19T03:59:33;99867.05;;;8.17;51.37
70690;BME280;58267;51.156;17.044;2023-02-19T04:01:55;99868.64;;;8.46;50.90
70690;BME280;58267;51.156;17.044;2023-02-19T04:04:22;99877.35;;;8.01;51.61
70690;BME280;58267;51.156;17.044;2023-02-19T04:06:48;99876.41;;;7.83;52.14
70690;BME280;58267;51.156;17.044;2023-02-19T04:09:11;99873.77;;;8.35;51.13
70690;BME280;58267;51.156;17.044;2023-02-19T04:11:37;99870.72;;;8.02;51.73
70690;BME280;58267;51.156;17.044;2023-02-19T04:14:06;99877.30;;;7.63;52.57
70690;BME280;58267;51.156;17.044;2023-02-19T04:16:29;99867.39;;;7.06;53.73
70690;BME280;58267;51.156;17.044;2023-02-19T04:18:54;99861.01;;;8.18;51.67
70690;BME280;58267;51.156;17.044;2023-02-19T04:21:19;99867.38;;;7.65;52.89
70690;BME280;58267;51.156;17.044;2023-02-19T04:23:44;99865.50;;;7.70;52.93
70690;BME280;58267;51.156;17.044;2023-02-19T04:26:09;99864.28;;;6.94;54.44
70690;BME280;58267;51.156;17.044;2023-02-19T04:28:34;99867.94;;;7.12;53.72
70690;BME280;58267;51.156;17.044;2023-02-19T04:31:00;99862.38;;;6.83;54.07
70690;BME280;58267;51.156;17.044;2023-02-19T04:33:25;99858.56;;;7.32;54.00
70690;BME280;58267;51.156;17.044;2023-02-19T04:35:50;99864.34;;;5.46;57.46
70690;BME280;58267;51.156;17.044;2023-02-19T04:38:16;99864.06;;;7.00;55.23
70690;BME280;58267;51.156;17.044;2023-02-19T04:40:42;99863.46;;;6.31;56.51
70690;BME280;58267;51.156;17.044;2023-02-19T04:43:08;99860.70;;;6.64;56.12
70690;BME280;58267;51.156;17.044;2023-02-19T04:45:33;99861.11;;;7.04;54.90
70690;BME280;58267;51.156;17.044;2023-02-19T04:47:59;99859.08;;;6.33;56.14
70690;BME280;58267;51.156;17.044;2023-02-19T04:50:24;99856.52;;;6.37;55.98
70690;BME280;58267;51.156;17.044;2023-02-19T04:52:49;99857.40;;;6.08;57.05
70690;BME280;58267;51.156;17.044;2023-02-19T04:55:15;99844.00;;;6.18;56.51
70690;BME280;58267;51.156;17.044;2023-02-19T04:57:40;99843.65;;;6.48;55.85
70690;BME280;58267;51.156;17.044;2023-02-19T05:00:06;99841.48;;;6.65;55.80
70690;BME280;58267;51.156;17.044;2023-02-19T05:02:31;99834.55;;;6.91;54.63
70690;BME280;58267;51.156;17.044;2023-02-19T05:04:56;99836.57;;;6.73;54.92
70690;BME280;58267;51.156;17.044;2023-02-19T05:07:21;99830.08;;;6.47;54.93
70690;BME280;58267;51.156;17.044;2023-02-19T05:09:46;99833.13;;;6.56;54.71
70690;BME280;58267;51.156;17.044;2023-02-19T05:12:12;99841.84;;;7.42;53.51
70690;BME280;58267;51.156;17.044;2023-02-19T05:14:37;99834.01;;;7.05;54.32
70690;BME280;58267;51.156;17.044;2023-02-19T05:17:03;99833.10;;;6.71;54.78
70690;BME280;58267;51.156;17.044;2023-02-19T05:19:28;99830.29;;;6.91;54.43
70690;BME280;58267;51.156;17.044;2023-02-19T05:21:54;99829.01;;;6.88;53.78
70690;BME280;58267;51.156;17.044;2023-02-19T05:24:19;99831.27;;;6.63;53.97
70690;BME280;58267;51.156;17.044;2023-02-19T05:26:44;99831.32;;;7.54;52.68
70690;BME280;58267;51.156;17.044;2023-02-19T05:29:09;99829.65;;;6.64;54.15
70690;BME280;58267;51.156;17.044;2023-02-19T05:31:35;99827.64;;;6.55;54.30
70690;BME280;58267;51.156;17.044;2023-02-19T05:34:00;99829.44;;;7.25;53.63
70690;BME280;58267;51.156;17.044;2023-02-19T05:36:27;99825.31;;;6.35;55.44
70690;BME280;58267;51.156;17.044;2023-02-19T05:38:53;99822.07;;;7.11;54.02
70690;BME280;58267;51.156;17.044;2023-02-19T05:41:19;99818.12;;;7.06;53.37
70690;BME280;58267;51.156;17.044;2023-02-19T05:43:44;99818.40;;;8.07;51.56
70690;BME280;58267;51.156;17.044;2023-02-19T05:46:09;99823.37;;;6.92;53.02
70690;BME280;58267;51.156;17.044;2023-02-19T05:48:34;99824.11;;;6.72;53.94
70690;BME280;58267;51.156;17.044;2023-02-19T05:51:01;99826.03;;;7.10;52.94
70690;BME280;58267;51.156;17.044;2023-02-19T05:53:24;99831.49;;;6.85;53.99
70690;BME280;58267;51.156;17.044;2023-02-19T05:55:50;99827.62;;;6.58;53.89
70690;BME280;58267;51.156;17.044;2023-02-19T05:58:15;99824.84;;;6.70;54.02
70690;BME280;58267;51.156;17.044;2023-02-19T06:00:40;99823.06;;;7.99;51.97
70690;BME280;58267;51.156;17.044;2023-02-19T06:03:06;99825.48;;;7.41;52.65
70690;BME280;58267;51.156;17.044;2023-02-19T06:05:31;99825.37;;;7.47;51.91
70690;BME280;58267;51.156;17.044;2023-02-19T06:07:57;99821.79;;;7.69;51.29
70690;BME280;58267;51.156;17.044;2023-02-19T06:10:22;99826.13;;;7.83;51.41
70690;BME280;58267;51.156;17.044;2023-02-19T06:12:47;99819.43;;;8.30;50.16
70690;BME280;58267;51.156;17.044;2023-02-19T06:15:13;99824.74;;;7.96;51.31
70690;BME280;58267;51.156;17.044;2023-02-19T06:17:38;99835.75;;;8.04;50.76
70690;BME280;58267;51.156;17.044;2023-02-19T06:20:03;99836.59;;;7.58;51.54
70690;BME280;58267;51.156;17.044;2023-02-19T06:22:28;99842.61;;;7.11;52.51
70690;BME280;58267;51.156;17.044;2023-02-19T06:24:53;99849.16;;;7.64;51.48
70690;BME280;58267;51.156;17.044;2023-02-19T06:27:19;99849.25;;;7.65;51.96
70690;BME280;58267;51.156;17.044;2023-02-19T06:29:44;99850.78;;;7.63;52.06
70690;BME280;58267;51.156;17.044;2023-02-19T06:32:09;99852.69;;;7.18;53.10
70690;BME280;58267;51.156;17.044;2023-02-19T06:34:35;99855.45;;;6.67;54.08
70690;BME280;58267;51.156;17.044;2023-02-19T06:37:00;99866.00;;;5.71;56.41
70690;BME280;58267;51.156;17.044;2023-02-19T06:39:25;99862.67;;;5.25;56.94
70690;BME280;58267;51.156;17.044;2023-02-19T06:41:52;99871.17;;;4.28;59.43
70690;BME280;58267;51.156;17.044;2023-02-19T06:44:16;99861.07;;;5.45;58.16
70690;BME280;58267;51.156;17.044;2023-02-19T06:46:41;99874.54;;;4.32;59.99
70690;BME280;58267;51.156;17.044;2023-02-19T06:49:06;99863.41;;;4.79;58.07
70690;BME280;58267;51.156;17.044;2023-02-19T06:51:33;99871.65;;;5.22;57.51
70690;BME280;58267;51.156;17.044;2023-02-19T06:53:57;99869.34;;;4.76;56.97
70690;BME280;58267;51.156;17.044;2023-02-19T06:56:24;99873.40;;;4.64;58.06
70690;BME280;58267;51.156;17.044;2023-02-19T06:58:48;99880.78;;;3.42;60.56
70690;BME280;58267;51.156;17.044;2023-02-19T07:01:13;99881.57;;;3.56;60.60
70690;BME280;58267;51.156;17.044;2023-02-19T07:03:38;99885.96;;;3.42;60.84
70690;BME280;58267;51.156;17.044;2023-02-19T07:06:04;99882.47;;;3.96;59.62
70690;BME280;58267;51.156;17.044;2023-02-19T07:08:29;99889.16;;;2.91;60.24
70690;BME280;58267;51.156;17.044;2023-02-19T07:10:54;99888.85;;;4.14;57.98
70690;BME280;58267;51.156;17.044;2023-02-19T07:13:19;99895.16;;;4.12;57.92
70690;BME280;58267;51.156;17.044;2023-02-19T07:15:44;99905.92;;;3.20;60.25
70690;BME280;58267;51.156;17.044;2023-02-19T07:18:10;99913.42;;;2.88;61.32
70690;BME280;58267;51.156;17.044;2023-02-19T07:20:35;99914.41;;;4.07;59.15
70690;BME280;58267;51.156;17.044;2023-02-19T07:23:00;99920.57;;;3.45;59.04
70690;BME280;58267;51.156;17.044;2023-02-19T07:25:25;99923.26;;;3.81;57.77
70690;BME280;58267;51.156;17.044;2023-02-19T07:27:51;99931.33;;;4.19;56.76
70690;BME280;58267;51.156;17.044;2023-02-19T07:30:16;99932.66;;;4.38;56.50
70690;BME280;58267;51.156;17.044;2023-02-19T07:32:42;99936.46;;;3.98;57.37
70690;BME280;58267;51.156;17.044;2023-02-19T07:35:07;99943.96;;;4.42;55.98
70690;BME280;58267;51.156;17.044;2023-02-19T07:37:32;99948.45;;;4.08;56.87
70690;BME280;58267;51.156;17.044;2023-02-19T07:39:57;99952.57;;;3.35;58.28
70690;BME280;58267;51.156;17.044;2023-02-19T07:42:23;99954.48;;;3.00;59.65
70690;BME280;58267;51.156;17.044;2023-02-19T07:44:48;99958.78;;;3.19;59.38
70690;BME280;58267;51.156;17.044;2023-02-19T07:47:14;99966.20;;;3.84;57.97
70690;BME280;58267;51.156;17.044;2023-02-19T07:49:40;99970.65;;;3.24;58.19
70690;BME280;58267;51.156;17.044;2023-02-19T07:52:05;99974.46;;;2.00;60.54
70690;BME280;58267;51.156;17.044;2023-02-19T07:54:30;99982.96;;;2.98;59.41
70690;BME280;58267;51.156;17.044;2023-02-19T07:56:55;99989.61;;;2.74;59.01
70690;BME280;58267;51.156;17.044;2023-02-19T07:59:21;99994.75;;;3.93;56.25
70690;BME280;58267;51.156;17.044;2023-02-19T08:01:46;99996.41;;;2.85;57.67
70690;BME280;58267;51.156;17.044;2023-02-19T08:04:13;99997.51;;;2.88;58.14
70690;BME280;58267;51.156;17.044;2023-02-19T08:06:36;100002.69;;;2.13;58.98
70690;BME280;58267;51.156;17.044;2023-02-19T08:09:03;100005.33;;;1.92;59.57
70690;BME280;58267;51.156;17.044;2023-02-19T08:11:27;100007.95;;;1.69;60.67
70690;BME280;58267;51.156;17.044;2023-02-19T08:13:52;100011.90;;;1.63;61.73
70690;BME280;58267;51.156;17.044;2023-02-19T08:16:19;100014.72;;;2.28;60.36
70690;BME280;58267;51.156;17.044;2023-02-19T08:18:44;100017.62;;;2.89;57.14
70690;BME280;58267;51.156;17.044;2023-02-19T08:21:09;100017.80;;;2.64;57.26
70690;BME280;58267;51.156;17.044;2023-02-19T08:23:34;100024.55;;;1.75;59.15
70690;BME280;58267;51.156;17.044;2023-02-19T08:26:00;100027.07;;;2.84;57.83
70690;BME280;58267;51.156;17.044;2023-02-19T08:28:25;100032.76;;;2.43;57.57
70690;BME280;58267;51.156;17.044;2023-02-19T08:30:50;100040.39;;;2.58;56.82
70690;BME280;58267;51.156;17.044;2023-02-19T08:33:18;100043.91;;;2.62;56.37
70690;BME280;58267;51.156;17.044;2023-02-19T08:35:41;100053.51;;;1.98;58.37
70690;BME280;58267;51.156;17.044;2023-02-19T08:38:06;100058.22;;;1.77;58.46
70690;BME280;58267;51.156;17.044;2023-02-19T08:40:32;100062.17;;;2.32;56.94
70690;BME280;58267;51.156;17.044;2023-02-19T08:43:01;100064.85;;;1.79;57.99
70690;BME280;58267;51.156;17.044;2023-02-19T08:45:21;100061.21;;;3.08;55.79
70690;BME280;58267;51.156;17.044;2023-02-19T08:47:47;100059.83;;;2.26;56.19
70690;BME280;58267;51.156;17.044;2023-02-19T08:50:12;100070.08;;;2.16;57.02
70690;BME280;58267;51.156;17.044;2023-02-19T08:52:37;100070.23;;;3.07;55.78
70690;BME280;58267;51.156;17.044;2023-02-19T08:55:04;100071.89;;;3.44;53.57
70690;BME280;58267;51.156;17.044;2023-02-19T08:57:28;100072.45;;;3.49;53.21
70690;BME280;58267;51.156;17.044;2023-02-19T08:59:53;100076.17;;;3.71;52.46
70690;BME280;58267;51.156;17.044;2023-02-19T09:02:18;100087.58;;;2.27;55.99
70690;BME280;58267;51.156;17.044;2023-02-19T09:04:43;100085.78;;;3.92;53.29
70690;BME280;58267;51.156;17.044;2023-02-19T09:07:09;100091.26;;;3.09;55.42
70690;BME280;58267;51.156;17.044;2023-02-19T09:09:36;100096.32;;;2.75;55.64
70690;BME280;58267;51.156;17.044;2023-02-19T09:12:00;100094.51;;;2.99;55.82
70690;BME280;58267;51.156;17.044;2023-02-19T09:14:26;100095.51;;;2.82;56.51
70690;BME280;58267;51.156;17.044;2023-02-19T09:16:51;100100.96;;;2.44;56.86
70690;BME280;58267;51.156;17.044;2023-02-19T09:19:17;100100.42;;;3.47;54.39
70690;BME280;58267;51.156;17.044;2023-02-19T09:21:41;100100.33;;;3.72;53.95
70690;BME280;58267;51.156;17.044;2023-02-19T09:24:08;100107.01;;;3.08;53.72
70690;BME280;58267;51.156;17.044;2023-02-19T09:26:32;100115.25;;;3.49;53.29
70690;BME280;58267;51.156;17.044;2023-02-19T09:28:57;100114.39;;;3.62;52.54
70690;BME280;58267;51.156;17.044;2023-02-19T09:31:22;100121.91;;;3.92;52.87
70690;BME280;58267;51.156;17.044;2023-02-19T09:33:48;100122.73;;;3.76;52.91
70690;BME280;58267;51.156;17.044;2023-02-19T09:36:14;100126.86;;;3.35;52.92
70690;BME280;58267;51.156;17.044;2023-02-19T09:38:38;100122.37;;;4.00;52.67
70690;BME280;58267;51.156;17.044;2023-02-19T09:41:08;100124.57;;;3.98;51.48
70690;BME280;58267;51.156;17.044;2023-02-19T09:43:29;100129.24;;;3.60;51.93
70690;BME280;58267;51.156;17.044;2023-02-19T09:46:05;100133.17;;;4.04;51.93
70690;BME280;58267;51.156;17.044;2023-02-19T09:48:20;100132.79;;;4.14;51.85
70690;BME280;58267;51.156;17.044;2023-02-19T09:50:47;100139.26;;;4.79;51.26
70690;BME280;58267;51.156;17.044;2023-02-19T09:53:14;100144.16;;;3.78;52.89
70690;BME280;58267;51.156;17.044;2023-02-19T09:55:37;100149.52;;;3.41;52.66
70690;BME280;58267;51.156;17.044;2023-02-19T09:58:05;100150.09;;;3.40;53.44
70690;BME280;58267;51.156;17.044;2023-02-19T10:00:28;100146.08;;;3.60;52.67
70690;BME280;58267;51.156;17.044;2023-02-19T10:03:03;100156.44;;;5.51;49.82
70690;BME280;58267;51.156;17.044;2023-02-19T10:05:16;100162.62;;;4.41;50.16
70690;BME280;58267;51.156;17.044;2023-02-19T10:07:44;100168.29;;;3.86;52.52
70690;BME280;58267;51.156;17.044;2023-02-19T10:12:32;100181.38;;;4.47;52.00
70690;BME280;58267;51.156;17.044;2023-02-19T10:15:03;100181.27;;;3.52;51.39
70690;BME280;58267;51.156;17.044;2023-02-19T10:17:24;100185.19;;;3.78;52.29
70690;BME280;58267;51.156;17.044;2023-02-19T10:19:48;100197.05;;;4.11;50.76
70690;BME280;58267;51.156;17.044;2023-02-19T10:22:13;100199.03;;;4.07;51.49
70690;BME280;58267;51.156;17.044;2023-02-19T10:24:41;100202.35;;;5.13;48.65
70690;BME280;58267;51.156;17.044;2023-02-19T10:27:05;100207.73;;;5.23;48.14
70690;BME280;58267;51.156;17.044;2023-02-19T10:29:29;100211.65;;;5.50;46.54
70690;BME280;58267;51.156;17.044;2023-02-19T10:34:21;100220.04;;;3.46;50.01
70690;BME280;58267;51.156;17.044;2023-02-19T10:36:47;100224.30;;;4.04;49.51
70690;BME280;58267;51.156;17.044;2023-02-19T10:39:29;100222.79;;;3.18;50.63
70690;BME280;58267;51.156;17.044;2023-02-19T10:41:40;100230.93;;;3.37;50.35
70690;BME280;58267;51.156;17.044;2023-02-19T10:44:08;100233.50;;;2.95;51.70
70690;BME280;58267;51.156;17.044;2023-02-19T10:46:28;100236.48;;;3.49;51.17
70690;BME280;58267;51.156;17.044;2023-02-19T10:48:53;100234.24;;;3.91;49.31
70690;BME280;58267;51.156;17.044;2023-02-19T10:51:18;100240.38;;;3.40;49.53
70690;BME280;58267;51.156;17.044;2023-02-19T10:53:44;100238.71;;;5.11;47.61
70690;BME280;58267;51.156;17.044;2023-02-19T10:56:09;100247.28;;;4.14;47.99
70690;BME280;58267;51.156;17.044;2023-02-19T10:58:32;100251.28;;;3.71;49.24
70690;BME280;58267;51.156;17.044;2023-02-19T11:03:23;100261.23;;;3.74;49.46
70690;BME280;58267;51.156;17.044;2023-02-19T11:05:53;100267.13;;;4.01;49.53
70690;BME280;58267;51.156;17.044;2023-02-19T11:08:20;100272.74;;;3.59;49.31
70690;BME280;58267;51.156;17.044;2023-02-19T11:10:40;100262.18;;;4.14;48.12
70690;BME280;58267;51.156;17.044;2023-02-19T11:13:05;100268.06;;;3.46;49.23
70690;BME280;58267;51.156;17.044;2023-02-19T11:15:32;100272.02;;;4.16;47.83
70690;BME280;58267;51.156;17.044;2023-02-19T11:17:58;100271.72;;;4.57;47.88
70690;BME280;58267;51.156;17.044;2023-02-19T11:20:21;100272.03;;;3.57;49.32
70690;BME280;58267;51.156;17.044;2023-02-19T11:22:46;100276.20;;;3.15;50.31
70690;BME280;58267;51.156;17.044;2023-02-19T11:25:18;100274.15;;;3.72;48.76
70690;BME280;58267;51.156;17.044;2023-02-19T11:32:29;100279.86;;;2.71;49.93
70690;BME280;58267;51.156;17.044;2023-02-19T11:37:18;100290.04;;;3.62;47.64
70690;BME280;58267;51.156;17.044;2023-02-19T11:39:44;100282.55;;;4.35;47.32
70690;BME280;58267;51.156;17.044;2023-02-19T11:42:22;100275.29;;;5.36;44.96
70690;BME280;58267;51.156;17.044;2023-02-19T11:44:42;100275.28;;;4.94;46.24
70690;BME280;58267;51.156;17.044;2023-02-19T11:47:11;100292.82;;;5.07;46.23
70690;BME280;58267;51.156;17.044;2023-02-19T11:49:32;100283.37;;;4.30;47.90
70690;BME280;58267;51.156;17.044;2023-02-19T11:51:59;100288.71;;;3.13;48.34
70690;BME280;58267;51.156;17.044;2023-02-19T11:54:22;100292.52;;;2.89;47.80
70690;BME280;58267;51.156;17.044;2023-02-19T11:56:41;100284.88;;;4.00;46.52
70690;BME280;58267;51.156;17.044;2023-02-19T11:59:08;100280.28;;;4.30;45.74
70690;BME280;58267;51.156;17.044;2023-02-19T12:01:38;100283.50;;;3.33;46.95
70690;BME280;58267;51.156;17.044;2023-02-19T12:04:07;100287.86;;;3.06;47.36
70690;BME280;58267;51.156;17.044;2023-02-19T12:06:27;100281.91;;;4.68;43.90
70690;BME280;58267;51.156;17.044;2023-02-19T12:08:55;100290.65;;;4.23;45.39
70690;BME280;58267;51.156;17.044;2023-02-19T12:13:47;100289.06;;;5.16;43.25
70690;BME280;58267;51.156;17.044;2023-02-19T12:16:10;100299.05;;;5.31;41.92
70690;BME280;58267;51.156;17.044;2023-02-19T12:18:43;100300.08;;;5.01;41.51
70690;BME280;58267;51.156;17.044;2023-02-19T12:21:01;100311.05;;;3.71;43.31
70690;BME280;58267;51.156;17.044;2023-02-19T12:23:34;100319.52;;;3.69;44.25
70690;BME280;58267;51.156;17.044;2023-02-19T12:25:48;100321.52;;;3.55;44.07
70690;BME280;58267;51.156;17.044;2023-02-19T12:28:23;100326.68;;;3.58;43.53
70690;BME280;58267;51.156;17.044;2023-02-19T12:33:14;100335.88;;;3.54;45.11
70690;BME280;58267;51.156;17.044;2023-02-19T12:37:55;100333.29;;;3.81;43.05
70690;BME280;58267;51.156;17.044;2023-02-19T12:40:26;100342.73;;;3.95;43.55
70690;BME280;58267;51.156;17.044;2023-02-19T12:42:51;100344.47;;;3.81;43.83
70690;BME280;58267;51.156;17.044;2023-02-19T12:45:14;100349.86;;;3.12;44.11
70690;BME280;58267;51.156;17.044;2023-02-19T12:47:37;100353.32;;;3.36;43.70
70690;BME280;58267;51.156;17.044;2023-02-19T12:50:04;100352.51;;;4.04;43.29
70690;BME280;58267;51.156;17.044;2023-02-19T12:52:25;100351.27;;;4.94;42.97
70690;BME280;58267;51.156;17.044;2023-02-19T12:54:51;100354.18;;;4.39;43.42
70690;BME280;58267;51.156;17.044;2023-02-19T12:57:16;100365.90;;;4.18;43.23
70690;BME280;58267;51.156;17.044;2023-02-19T12:59:42;100377.11;;;3.52;43.88
70690;BME280;58267;51.156;17.044;2023-02-19T13:02:11;100386.78;;;4.28;42.07
70690;BME280;58267;51.156;17.044;2023-02-19T13:04:37;100374.80;;;4.75;40.87
70690;BME280;58267;51.156;17.044;2023-02-19T13:06:58;100386.21;;;4.59;41.34